createdAt,value
2022-10-29T00:00:20.531Z,9.00
2022-10-29T00:05:44.538Z,9.00
2022-10-29T00:08:13.463Z,6.00
2022-10-29T00:10:41.408Z,7.00
2022-10-29T00:13:09.181Z,7.00
2022-10-29T00:15:41.131Z,11.00
2022-10-29T00:18:13.514Z,9.00
2022-10-29T00:20:42.579Z,10.00
2022-10-29T00:23:11.483Z,8.50
2022-10-29T00:25:45.508Z,9.00
2022-10-29T00:28:14.633Z,8.00
2022-10-29T00:30:43.601Z,7.00
2022-10-29T00:36:03.099Z,9.00
2022-10-29T00:38:35.957Z,6.00
2022-10-29T00:41:06.670Z,9.00
2022-10-29T00:43:39.364Z,9.00
2022-10-29T00:46:21.382Z,9.50
2022-10-29T00:49:01.000Z,9.00
2022-10-29T00:51:33.171Z,8.00
2022-10-29T00:54:06.596Z,8.00
2022-10-29T00:59:09.375Z,9.00
2022-10-29T01:01:38.241Z,7.00
2022-10-29T01:04:06.778Z,8.00
2022-10-29T01:06:35.735Z,9.00
2022-10-29T01:09:03.808Z,7.00
2022-10-29T01:12:12.858Z,6.00
2022-10-29T01:15:15.430Z,9.00
2022-10-29T01:18:04.822Z,6.50
2022-10-29T01:21:12.418Z,4.00
2022-10-29T01:24:26.661Z,7.00
2022-10-29T01:27:38.478Z,5.00
2022-10-29T01:30:06.745Z,4.00
2022-10-29T01:33:02.501Z,6.50
2022-10-29T01:35:48.259Z,8.00
2022-10-29T01:38:35.590Z,7.50
2022-10-29T01:41:19.630Z,6.00
2022-10-29T01:43:47.412Z,4.00
2022-10-29T01:46:23.414Z,7.00
2022-10-29T01:49:04.066Z,7.50
2022-10-29T01:51:38.218Z,7.00
2022-10-29T01:54:11.107Z,8.00
2022-10-29T01:56:40.133Z,9.00
2022-10-29T01:59:23.016Z,7.00
2022-10-29T02:05:06.281Z,11.00
2022-10-29T02:07:54.520Z,9.50
2022-10-29T02:10:38.746Z,5.00
2022-10-29T02:13:10.084Z,8.00
2022-10-29T02:15:48.398Z,6.00
2022-10-29T02:18:18.067Z,7.00
2022-10-29T02:21:20.162Z,6.00
2022-10-29T02:23:52.814Z,4.00
2022-10-29T02:26:24.529Z,6.00
2022-10-29T02:28:52.388Z,6.00
2022-10-29T02:31:23.280Z,15.00
2022-10-29T02:33:56.523Z,10.50
2022-10-29T02:36:25.420Z,6.00
2022-10-29T02:38:59.565Z,5.00
2022-10-29T02:44:01.644Z,7.00
2022-10-29T02:46:30.655Z,6.50
2022-10-29T02:49:00.718Z,5.00
2022-10-29T02:51:30.922Z,7.00
2022-10-29T02:53:58.772Z,4.00
2022-10-29T02:56:30.413Z,7.50
2022-10-29T02:59:06.511Z,7.50
2022-10-29T03:01:37.210Z,5.00
2022-10-29T03:06:36.918Z,9.00
2022-10-29T03:09:05.146Z,7.00
2022-10-29T03:11:36.353Z,8.00
2022-10-29T03:14:06.240Z,5.00
2022-10-29T03:16:41.456Z,7.00
2022-10-29T03:19:11.435Z,8.00
2022-10-29T03:21:40.484Z,7.00
2022-10-29T03:24:15.458Z,6.00
2022-10-29T03:29:13.299Z,13.00
2022-10-29T03:34:12.528Z,9.00
2022-10-29T03:36:42.646Z,8.00
2022-10-29T03:39:11.646Z,9.00
2022-10-29T03:41:39.523Z,7.00
2022-10-29T03:44:07.423Z,7.00
2022-10-29T03:51:30.926Z,6.00
2022-10-29T03:54:03.521Z,9.50
2022-10-29T03:56:32.460Z,4.50
2022-10-29T04:03:57.430Z,5.00
2022-10-29T04:06:25.413Z,5.00
2022-10-29T04:08:55.052Z,5.00
2022-10-29T04:11:23.414Z,6.00
2022-10-29T04:13:53.906Z,6.67
2022-10-29T04:16:22.892Z,7.50
2022-10-29T04:18:52.772Z,5.00
2022-10-29T04:29:58.467Z,6.50
2022-10-29T04:32:27.885Z,9.00
2022-10-29T04:34:57.857Z,9.00
2022-10-29T04:37:29.854Z,6.00
2022-10-29T04:39:58.749Z,6.50
2022-10-29T04:42:28.701Z,9.00
2022-10-29T04:44:56.501Z,6.00
2022-10-29T04:47:27.518Z,5.00
2022-10-29T04:50:03.614Z,7.00
2022-10-29T04:52:41.320Z,9.00
2022-10-29T04:55:11.189Z,8.00
2022-10-29T04:57:42.346Z,10.00
2022-10-29T05:00:17.858Z,8.00
2022-10-29T05:08:00.956Z,9.00
2022-10-29T05:10:32.660Z,10.00
2022-10-29T05:13:05.566Z,11.00
2022-10-29T05:18:10.764Z,11.00
2022-10-29T05:20:46.643Z,15.00
2022-10-29T05:23:14.681Z,8.00
2022-10-29T05:28:20.312Z,9.00
2022-10-29T05:30:53.785Z,11.00
2022-10-29T05:33:24.843Z,6.00
2022-10-29T05:35:54.849Z,10.00
2022-10-29T05:38:56.360Z,11.50
2022-10-29T05:41:25.288Z,9.00
2022-10-29T05:43:54.210Z,10.00
2022-10-29T05:46:26.518Z,7.00
2022-10-29T05:48:56.502Z,9.00
2022-10-29T05:51:31.500Z,11.00
2022-10-29T05:53:59.458Z,10.00
2022-10-29T05:56:33.457Z,6.00
2022-10-29T05:59:03.002Z,12.00
2022-10-29T06:01:30.809Z,11.00
2022-10-29T06:06:31.358Z,10.50
2022-10-29T06:08:59.536Z,9.00
2022-10-29T06:14:09.415Z,12.00
2022-10-29T06:16:37.350Z,11.50
2022-10-29T06:19:06.348Z,2.00
2022-10-29T06:21:35.755Z,12.00
2022-10-29T06:24:05.155Z,17.50
2022-10-29T06:26:35.133Z,15.00
2022-10-29T06:29:04.177Z,12.00
2022-10-29T06:31:35.441Z,13.00
2022-10-29T06:34:10.493Z,12.00
2022-10-29T06:36:39.546Z,11.00
2022-10-29T06:39:09.687Z,11.00
2022-10-29T06:41:38.665Z,11.00
2022-10-29T06:44:07.452Z,13.00
2022-10-29T06:46:36.467Z,11.00
2022-10-29T06:49:06.772Z,11.00
2022-10-29T06:51:36.662Z,16.50
2022-10-29T06:56:34.718Z,12.50
2022-10-29T06:59:07.236Z,9.50
2022-10-29T07:01:36.491Z,10.00
2022-10-29T07:04:05.651Z,12.00
2022-10-29T07:06:34.755Z,12.00
2022-10-29T07:09:02.801Z,9.00
2022-10-29T07:11:32.689Z,9.00
2022-10-29T07:14:01.511Z,7.00
2022-10-29T07:16:29.447Z,10.00
2022-10-29T07:18:58.450Z,8.50
2022-10-29T07:21:26.377Z,25.00
2022-10-29T07:26:24.475Z,16.00
2022-10-29T07:28:57.436Z,12.00
2022-10-29T07:39:24.289Z,13.00
2022-10-29T07:41:58.188Z,9.00
2022-10-29T07:44:35.594Z,10.00
2022-10-29T07:47:16.858Z,9.00
2022-10-29T07:49:50.501Z,9.00
2022-10-29T07:52:25.474Z,10.00
2022-10-29T07:54:55.457Z,8.00
2022-10-29T07:57:23.495Z,8.00
2022-10-29T07:59:55.496Z,9.50
2022-10-29T08:02:23.261Z,7.00
2022-10-29T08:04:53.184Z,9.00
2022-10-29T08:07:21.035Z,8.00
2022-10-29T08:09:50.844Z,8.00
2022-10-29T08:12:21.460Z,9.50
2022-10-29T08:17:29.897Z,7.00
2022-10-29T08:19:58.856Z,11.50
2022-10-29T08:22:30.969Z,9.00
2022-10-29T08:25:04.876Z,8.50
2022-10-29T08:27:42.292Z,9.00
2022-10-29T08:30:17.514Z,8.00
2022-10-29T08:32:51.584Z,9.00
2022-10-29T08:37:48.740Z,8.00
2022-10-29T08:40:29.326Z,7.50
2022-10-29T08:43:24.709Z,9.00
2022-10-29T08:45:55.363Z,9.00
2022-10-29T08:48:46.658Z,13.50
2022-10-29T08:51:34.223Z,15.00
2022-10-29T08:54:25.620Z,12.00
2022-10-29T08:57:02.720Z,10.50
2022-10-29T08:59:39.860Z,10.00
2022-10-29T09:02:18.458Z,11.00
2022-10-29T09:04:47.475Z,11.00
2022-10-29T09:07:55.237Z,12.00
2022-10-29T09:13:08.538Z,14.00
2022-10-29T09:15:57.553Z,10.00
2022-10-29T09:19:00.273Z,9.00
2022-10-29T09:21:52.557Z,9.00
2022-10-29T09:24:55.456Z,7.00
2022-10-29T09:27:52.561Z,3.00
2022-10-29T09:30:21.845Z,9.00
2022-10-29T09:33:07.342Z,10.00
2022-10-29T09:35:54.994Z,9.00
2022-10-29T09:38:29.567Z,10.00
2022-10-29T09:41:02.707Z,9.50
2022-10-29T09:43:46.655Z,7.00
2022-10-29T09:52:02.300Z,7.50
2022-10-29T09:55:05.991Z,9.00
2022-10-29T09:57:37.002Z,8.50
2022-10-29T10:00:16.598Z,7.00
2022-10-29T10:02:52.098Z,6.00
2022-10-29T10:05:30.214Z,8.50
2022-10-29T10:08:07.073Z,6.00
2022-10-29T10:10:53.712Z,10.50
2022-10-29T10:13:35.925Z,8.00
2022-10-29T10:16:06.793Z,7.00
2022-10-29T10:18:45.728Z,8.00
2022-10-29T10:21:25.994Z,7.00
2022-10-29T10:24:37.444Z,6.50
2022-10-29T10:27:17.757Z,6.00
2022-10-29T10:30:22.964Z,8.50
2022-10-29T10:33:10.834Z,6.00
2022-10-29T10:35:41.604Z,5.00
2022-10-29T10:38:10.232Z,7.00
2022-10-29T10:41:23.376Z,6.00
2022-10-29T10:43:58.193Z,9.00
2022-10-29T10:46:29.713Z,7.00
2022-10-29T10:49:24.617Z,7.50
2022-10-29T10:51:55.466Z,9.00
2022-10-29T10:54:41.973Z,10.00
2022-10-29T10:57:22.632Z,8.50
2022-10-29T11:02:37.045Z,7.00
2022-10-29T11:05:34.139Z,6.00
2022-10-29T11:08:08.857Z,7.00
2022-10-29T11:10:55.300Z,6.00
2022-10-29T11:13:32.668Z,6.00
2022-10-29T11:16:13.701Z,7.50
2022-10-29T11:18:59.280Z,7.50
2022-10-29T11:21:43.496Z,6.00
2022-10-29T11:24:26.100Z,7.00
2022-10-29T11:27:20.887Z,8.50
2022-10-29T11:30:10.271Z,9.00
2022-10-29T11:33:08.301Z,7.00
2022-10-29T11:38:22.628Z,4.33
2022-10-29T11:41:04.996Z,7.00
2022-10-29T11:43:34.345Z,5.50
2022-10-29T11:46:25.818Z,5.00
2022-10-29T11:52:24.915Z,5.00
2022-10-29T11:55:07.957Z,6.00
2022-10-29T11:57:44.066Z,5.00
2022-10-29T12:00:20.988Z,8.00
2022-10-29T12:05:59.328Z,7.00
2022-10-29T12:11:45.584Z,6.00
2022-10-29T12:14:26.364Z,5.00
2022-10-29T12:17:14.111Z,4.00
2022-10-29T12:23:25.357Z,4.50
2022-10-29T12:26:33.949Z,4.00
2022-10-29T12:29:20.301Z,6.00
2022-10-29T12:32:10.449Z,5.00
2022-10-29T12:34:58.399Z,7.00
2022-10-29T12:37:57.261Z,6.00
2022-10-29T12:40:31.955Z,4.00
2022-10-29T12:43:13.872Z,8.00
2022-10-29T12:51:52.740Z,6.50
2022-10-29T12:54:43.633Z,4.00
2022-10-29T12:57:12.497Z,6.00
2022-10-29T12:59:48.594Z,5.00
2022-10-29T13:05:07.085Z,6.00
2022-10-29T13:07:45.642Z,10.00
2022-10-29T13:10:29.755Z,7.00
2022-10-29T13:13:05.686Z,7.00
2022-10-29T13:16:03.033Z,6.00
2022-10-29T13:18:49.249Z,5.00
2022-10-29T13:24:23.308Z,8.00
2022-10-29T13:27:24.453Z,7.00
2022-10-29T13:30:15.973Z,7.00
2022-10-29T13:32:48.679Z,6.00
2022-10-29T13:35:17.509Z,7.00
2022-10-29T13:37:53.867Z,8.00
2022-10-29T13:40:22.731Z,4.00
2022-10-29T13:46:32.522Z,9.00
2022-10-29T13:49:12.722Z,7.00
2022-10-29T13:52:09.225Z,8.00
2022-10-29T13:55:16.131Z,7.00
2022-10-29T13:58:02.806Z,6.00
2022-10-29T14:00:35.185Z,5.00
2022-10-29T14:03:36.500Z,7.00
2022-10-29T14:06:23.551Z,10.00
2022-10-29T14:09:08.179Z,9.00
2022-10-29T14:12:00.757Z,8.00
2022-10-29T14:14:43.109Z,9.00
2022-10-29T14:17:18.251Z,10.00
2022-10-29T14:19:52.360Z,7.50
2022-10-29T14:27:04.265Z,9.00
2022-10-29T14:29:32.177Z,8.50
2022-10-29T14:34:34.543Z,10.50
2022-10-29T14:37:31.165Z,9.00
2022-10-29T14:40:26.467Z,11.00
2022-10-29T14:42:57.919Z,8.00
2022-10-29T14:46:29.856Z,11.00
2022-10-29T14:50:36.093Z,11.00
2022-10-29T14:53:06.829Z,10.50
2022-10-29T14:58:38.468Z,10.00
2022-10-29T15:01:18.911Z,15.00
2022-10-29T15:06:19.387Z,13.00
2022-10-29T15:08:59.841Z,12.00
2022-10-29T15:11:57.849Z,15.00
2022-10-29T15:14:38.950Z,17.00
2022-10-29T15:17:23.834Z,17.50
2022-10-29T15:22:42.872Z,14.00
2022-10-29T15:28:23.241Z,15.00
2022-10-29T15:31:04.143Z,13.00
2022-10-29T15:33:37.197Z,13.00
2022-10-29T15:38:51.207Z,16.00
2022-10-29T15:44:34.724Z,13.00
2022-10-29T15:52:32.726Z,19.00
2022-10-29T15:55:35.940Z,18.00
2022-10-29T15:58:09.696Z,8.00
2022-10-29T16:00:44.374Z,14.00
2022-10-29T16:03:21.136Z,10.00
2022-10-29T16:06:53.279Z,12.00
2022-10-29T16:09:23.517Z,13.50
2022-10-29T16:11:52.315Z,12.00
2022-10-29T16:16:52.423Z,16.00
2022-10-29T16:19:56.406Z,15.00
2022-10-29T16:23:38.347Z,14.50
2022-10-29T16:26:23.464Z,16.00
2022-10-29T16:29:25.678Z,18.50
2022-10-29T16:39:11.612Z,19.00
2022-10-29T16:41:41.707Z,19.00
2022-10-29T16:44:46.325Z,15.00
2022-10-29T16:47:14.194Z,19.00
2022-10-29T16:49:44.251Z,18.00
2022-10-29T16:52:18.977Z,20.00
2022-10-29T16:54:56.809Z,18.50
2022-10-29T16:57:26.915Z,18.00
2022-10-29T16:59:56.943Z,18.00
2022-10-29T17:02:26.219Z,21.00
2022-10-29T17:04:54.279Z,22.00
2022-10-29T17:07:22.455Z,23.00
2022-10-29T17:09:51.573Z,22.00
2022-10-29T17:12:20.842Z,20.00
2022-10-29T17:14:54.584Z,17.00
2022-10-29T17:17:32.026Z,21.00
2022-10-29T17:20:00.041Z,17.00
2022-10-29T17:22:29.053Z,17.00
2022-10-29T17:24:57.148Z,18.00
2022-10-29T17:27:25.026Z,17.00
2022-10-29T17:29:53.011Z,19.00
2022-10-29T17:32:23.131Z,21.00
2022-10-29T17:34:51.555Z,20.00
2022-10-29T17:39:50.957Z,15.50
2022-10-29T17:42:31.387Z,15.00
2022-10-29T17:44:59.266Z,18.00
2022-10-29T17:47:28.337Z,14.00
2022-10-29T17:49:57.518Z,17.00
2022-10-29T17:52:33.669Z,18.50
2022-10-29T17:55:03.917Z,18.00
2022-10-29T17:57:32.983Z,16.00
2022-10-29T18:00:05.161Z,16.00
2022-10-29T18:05:10.061Z,17.00
2022-10-29T18:10:08.589Z,16.50
2022-10-29T18:12:36.480Z,14.00
2022-10-29T18:15:09.998Z,15.00
2022-10-29T18:17:40.804Z,20.00
2022-10-29T18:20:10.953Z,18.00
2022-10-29T18:22:38.943Z,24.50
2022-10-29T18:25:10.588Z,21.00
2022-10-29T18:27:41.346Z,23.00
2022-10-29T18:30:22.927Z,19.00
2022-10-29T18:32:52.989Z,21.00
2022-10-29T18:35:22.087Z,22.00
2022-10-29T18:37:50.007Z,22.00
2022-10-29T18:40:17.986Z,25.00
2022-10-29T18:47:43.419Z,21.50
2022-10-29T18:50:11.289Z,22.00
2022-10-29T18:52:41.207Z,21.00
2022-10-29T18:55:10.184Z,20.00
2022-10-29T18:57:38.195Z,16.50
2022-10-29T19:00:06.887Z,17.00
2022-10-29T19:02:34.924Z,15.00
2022-10-29T19:05:04.106Z,15.00
2022-10-29T19:07:32.051Z,16.00
2022-10-29T19:10:00.423Z,15.00
2022-10-29T19:14:57.210Z,18.00
2022-10-29T19:17:26.193Z,16.50
2022-10-29T19:19:55.090Z,16.00
2022-10-29T19:22:23.990Z,17.00
2022-10-29T19:24:53.770Z,17.00
2022-10-29T19:27:22.735Z,17.50
2022-10-29T19:29:51.664Z,18.50
2022-10-29T19:34:48.921Z,18.00
2022-10-29T19:37:16.811Z,21.00
2022-10-29T19:39:44.850Z,20.00
2022-10-29T19:42:12.866Z,18.50
2022-10-29T19:44:47.412Z,18.00
2022-10-29T19:49:48.497Z,23.50
2022-10-29T19:52:16.296Z,19.50
2022-10-29T19:54:45.167Z,17.00
2022-10-29T19:57:13.979Z,21.00
2022-10-29T20:02:10.990Z,20.50
2022-10-29T20:07:09.937Z,18.00
2022-10-29T20:09:38.894Z,19.50
2022-10-29T20:12:07.067Z,19.00
2022-10-29T20:14:36.108Z,14.50
2022-10-29T20:19:32.836Z,21.00
2022-10-29T20:22:00.838Z,22.00
2022-10-29T20:24:29.911Z,21.00
2022-10-29T20:26:58.741Z,20.00
2022-10-29T20:29:27.992Z,22.00
2022-10-29T20:32:01.617Z,23.00
2022-10-29T20:39:32.380Z,18.00
2022-10-29T20:42:01.546Z,18.50
2022-10-29T20:47:11.591Z,16.00
2022-10-29T20:49:45.724Z,17.50
2022-10-29T20:52:13.627Z,16.00
2022-10-29T20:54:46.673Z,17.00
2022-10-29T20:57:14.486Z,19.00
2022-10-29T20:59:43.513Z,18.00
2022-10-29T21:02:12.268Z,13.00
2022-10-29T21:04:41.565Z,15.00
2022-10-29T21:07:09.524Z,16.50
2022-10-29T21:09:44.480Z,16.00
2022-10-29T21:12:12.511Z,15.00
2022-10-29T21:17:13.503Z,19.00
2022-10-29T21:19:43.530Z,19.00
2022-10-29T21:22:14.912Z,16.00
2022-10-29T21:24:45.630Z,17.00
2022-10-29T21:27:14.811Z,16.00
2022-10-29T21:29:42.699Z,14.00
2022-10-29T21:32:12.991Z,15.00
2022-10-29T21:34:45.766Z,16.00
2022-10-29T21:37:18.581Z,16.50
2022-10-29T21:39:48.488Z,20.00
2022-10-29T21:44:47.204Z,17.00
2022-10-29T21:49:44.946Z,14.00
2022-10-29T21:52:15.808Z,13.00
2022-10-29T21:54:44.678Z,10.00
2022-10-29T21:57:13.556Z,10.00
2022-10-29T21:59:42.428Z,8.50
2022-10-29T22:02:10.491Z,10.00
2022-10-29T22:04:39.729Z,13.00
2022-10-29T22:07:07.776Z,12.00
2022-10-29T22:09:36.672Z,10.00
2022-10-29T22:12:05.901Z,10.00
2022-10-29T22:14:34.911Z,12.50
2022-10-29T22:17:04.979Z,15.00
2022-10-29T22:19:41.893Z,10.00
2022-10-29T22:22:11.198Z,12.00
2022-10-29T22:24:41.391Z,11.00
2022-10-29T22:27:13.807Z,10.00
2022-10-29T22:29:48.561Z,9.50
2022-10-29T22:32:40.427Z,10.00
2022-10-29T22:35:18.016Z,14.50
2022-10-29T22:38:27.422Z,13.00
2022-10-29T22:42:17.469Z,13.00
2022-10-29T22:47:14.882Z,12.00
2022-10-29T22:49:45.113Z,9.00
2022-10-29T22:54:42.231Z,10.00
2022-10-29T22:57:11.054Z,11.00
2022-10-29T22:59:47.673Z,12.00
2022-10-29T23:02:17.612Z,14.00
2022-10-29T23:07:16.529Z,10.00
2022-10-29T23:09:44.310Z,12.00
2022-10-29T23:14:40.024Z,14.50
2022-10-29T23:17:10.026Z,11.50
2022-10-29T23:19:39.861Z,12.00
2022-10-29T23:22:11.526Z,12.00
2022-10-29T23:24:40.417Z,13.00
2022-10-29T23:27:08.404Z,12.00
2022-10-29T23:34:40.496Z,13.00
2022-10-29T23:37:10.029Z,16.00
2022-10-29T23:39:42.652Z,13.50
2022-10-29T23:42:10.861Z,12.00
2022-10-29T23:44:39.693Z,10.00
2022-10-29T23:47:07.552Z,12.00
2022-10-29T23:49:35.520Z,12.00
2022-10-29T23:52:04.573Z,15.00
2022-10-29T23:54:33.467Z,12.00
2022-10-29T23:57:02.695Z,11.00
2022-10-29T23:59:30.632Z,11.00
